sensor_id;sensor_type;location;lat;lon;timestamp;P1;durP1;ratioP1;P2;durP2;ratioP2
18887;SDS011;9576;47.792;9.628;2023-04-25T00:00:28;4.55;;;2.50;;
18887;SDS011;9576;47.792;9.628;2023-04-25T00:03:30;5.57;;;3.28;;
18887;SDS011;9576;47.792;9.628;2023-04-25T00:06:32;8.38;;;2.97;;
18887;SDS011;9576;47.792;9.628;2023-04-25T00:09:36;9.40;;;3.17;;
18887;SDS011;9576;47.792;9.628;2023-04-25T00:12:38;5.40;;;2.47;;
18887;SDS011;9576;47.792;9.628;2023-04-25T00:15:43;5.72;;;2.88;;
18887;SDS011;9576;47.792;9.628;2023-04-25T00:18:46;4.72;;;2.88;;
18887;SDS011;9576;47.792;9.628;2023-04-25T00:21:51;10.50;;;3.25;;
18887;SDS011;9576;47.792;9.628;2023-04-25T00:24:53;4.75;;;2.80;;
18887;SDS011;9576;47.792;9.628;2023-04-25T00:27:57;6.65;;;3.70;;
18887;SDS011;9576;47.792;9.628;2023-04-25T00:31:00;12.15;;;3.28;;
18887;SDS011;9576;47.792;9.628;2023-04-25T00:34:02;7.50;;;3.10;;
18887;SDS011;9576;47.792;9.628;2023-04-25T00:37:04;10.40;;;3.28;;
18887;SDS011;9576;47.792;9.628;2023-04-25T00:40:06;4.40;;;3.05;;
18887;SDS011;9576;47.792;9.628;2023-04-25T00:43:09;9.43;;;2.50;;
18887;SDS011;9576;47.792;9.628;2023-04-25T00:46:12;9.38;;;3.80;;
18887;SDS011;9576;47.792;9.628;2023-04-25T00:49:14;6.60;;;2.95;;
18887;SDS011;9576;47.792;9.628;2023-04-25T00:52:17;8.27;;;3.72;;
18887;SDS011;9576;47.792;9.628;2023-04-25T00:55:18;6.05;;;3.05;;
18887;SDS011;9576;47.792;9.628;2023-04-25T00:58:21;5.68;;;3.20;;
18887;SDS011;9576;47.792;9.628;2023-04-25T01:01:25;9.13;;;3.22;;
18887;SDS011;9576;47.792;9.628;2023-04-25T01:04:28;8.85;;;3.97;;
18887;SDS011;9576;47.792;9.628;2023-04-25T01:07:29;7.60;;;3.28;;
18887;SDS011;9576;47.792;9.628;2023-04-25T01:10:32;6.10;;;3.05;;
18887;SDS011;9576;47.792;9.628;2023-04-25T01:13:34;5.95;;;2.92;;
18887;SDS011;9576;47.792;9.628;2023-04-25T01:16:37;10.00;;;3.33;;
18887;SDS011;9576;47.792;9.628;2023-04-25T01:19:39;9.45;;;2.63;;
18887;SDS011;9576;47.792;9.628;2023-04-25T01:22:43;6.10;;;2.97;;
18887;SDS011;9576;47.792;9.628;2023-04-25T01:25:45;8.40;;;3.65;;
18887;SDS011;9576;47.792;9.628;2023-04-25T01:28:47;5.93;;;3.00;;
18887;SDS011;9576;47.792;9.628;2023-04-25T01:31:50;5.30;;;2.72;;
18887;SDS011;9576;47.792;9.628;2023-04-25T01:34:53;7.47;;;2.63;;
18887;SDS011;9576;47.792;9.628;2023-04-25T01:37:56;6.15;;;2.33;;
18887;SDS011;9576;47.792;9.628;2023-04-25T01:40:58;4.75;;;2.83;;
18887;SDS011;9576;47.792;9.628;2023-04-25T01:44:00;11.98;;;2.08;;
18887;SDS011;9576;47.792;9.628;2023-04-25T01:47:03;8.02;;;2.90;;
18887;SDS011;9576;47.792;9.628;2023-04-25T01:50:06;9.30;;;2.65;;
18887;SDS011;9576;47.792;9.628;2023-04-25T01:53:10;2.97;;;2.13;;
18887;SDS011;9576;47.792;9.628;2023-04-25T01:56:14;17.95;;;3.38;;
18887;SDS011;9576;47.792;9.628;2023-04-25T01:59:16;5.07;;;2.33;;
18887;SDS011;9576;47.792;9.628;2023-04-25T02:02:21;4.65;;;2.83;;
18887;SDS011;9576;47.792;9.628;2023-04-25T02:05:23;10.40;;;2.42;;
18887;SDS011;9576;47.792;9.628;2023-04-25T02:08:26;11.90;;;2.83;;
18887;SDS011;9576;47.792;9.628;2023-04-25T02:11:28;3.72;;;2.15;;
18887;SDS011;9576;47.792;9.628;2023-04-25T02:14:30;4.25;;;2.15;;
18887;SDS011;9576;47.792;9.628;2023-04-25T02:17:32;2.40;;;2.03;;
18887;SDS011;9576;47.792;9.628;2023-04-25T02:20:34;4.10;;;2.00;;
18887;SDS011;9576;47.792;9.628;2023-04-25T02:23:37;16.35;;;3.17;;
18887;SDS011;9576;47.792;9.628;2023-04-25T02:26:39;6.18;;;2.35;;
18887;SDS011;9576;47.792;9.628;2023-04-25T02:29:41;6.25;;;2.03;;
18887;SDS011;9576;47.792;9.628;2023-04-25T02:32:43;13.35;;;2.45;;
18887;SDS011;9576;47.792;9.628;2023-04-25T02:35:45;6.15;;;3.05;;
18887;SDS011;9576;47.792;9.628;2023-04-25T02:38:49;8.05;;;2.53;;
18887;SDS011;9576;47.792;9.628;2023-04-25T02:41:51;3.63;;;2.22;;
18887;SDS011;9576;47.792;9.628;2023-04-25T02:44:53;6.80;;;2.92;;
18887;SDS011;9576;47.792;9.628;2023-04-25T02:47:55;3.58;;;2.50;;
18887;SDS011;9576;47.792;9.628;2023-04-25T02:50:57;6.93;;;3.03;;
18887;SDS011;9576;47.792;9.628;2023-04-25T02:54:00;14.45;;;2.92;;
18887;SDS011;9576;47.792;9.628;2023-04-25T02:57:02;7.45;;;2.40;;
18887;SDS011;9576;47.792;9.628;2023-04-25T03:00:04;9.48;;;2.60;;
18887;SDS011;9576;47.792;9.628;2023-04-25T03:03:07;4.35;;;2.33;;
18887;SDS011;9576;47.792;9.628;2023-04-25T03:06:09;5.57;;;2.13;;
18887;SDS011;9576;47.792;9.628;2023-04-25T03:09:13;4.78;;;2.67;;
18887;SDS011;9576;47.792;9.628;2023-04-25T03:12:15;10.00;;;2.88;;
18887;SDS011;9576;47.792;9.628;2023-04-25T03:15:17;7.72;;;2.63;;
18887;SDS011;9576;47.792;9.628;2023-04-25T03:18:19;14.10;;;2.42;;
18887;SDS011;9576;47.792;9.628;2023-04-25T03:21:20;4.80;;;2.60;;
18887;SDS011;9576;47.792;9.628;2023-04-25T03:24:24;5.38;;;3.17;;
18887;SDS011;9576;47.792;9.628;2023-04-25T03:27:27;8.77;;;3.17;;
18887;SDS011;9576;47.792;9.628;2023-04-25T03:30:29;5.20;;;3.10;;
18887;SDS011;9576;47.792;9.628;2023-04-25T03:33:31;6.10;;;3.25;;
18887;SDS011;9576;47.792;9.628;2023-04-25T03:36:32;5.55;;;2.75;;
18887;SDS011;9576;47.792;9.628;2023-04-25T03:39:36;17.65;;;3.20;;
18887;SDS011;9576;47.792;9.628;2023-04-25T03:42:38;5.90;;;3.08;;
18887;SDS011;9576;47.792;9.628;2023-04-25T03:45:40;9.13;;;3.33;;
18887;SDS011;9576;47.792;9.628;2023-04-25T03:48:42;9.02;;;3.03;;
18887;SDS011;9576;47.792;9.628;2023-04-25T03:51:44;6.40;;;2.83;;
18887;SDS011;9576;47.792;9.628;2023-04-25T03:54:47;9.43;;;3.58;;
18887;SDS011;9576;47.792;9.628;2023-04-25T03:57:49;10.23;;;4.07;;
18887;SDS011;9576;47.792;9.628;2023-04-25T04:00:51;6.78;;;2.78;;
18887;SDS011;9576;47.792;9.628;2023-04-25T04:03:53;10.23;;;3.30;;
18887;SDS011;9576;47.792;9.628;2023-04-25T04:06:55;4.22;;;2.60;;
18887;SDS011;9576;47.792;9.628;2023-04-25T04:09:58;2.60;;;2.20;;
18887;SDS011;9576;47.792;9.628;2023-04-25T04:13:00;13.68;;;3.03;;
18887;SDS011;9576;47.792;9.628;2023-04-25T04:16:02;15.73;;;2.88;;
18887;SDS011;9576;47.792;9.628;2023-04-25T04:19:05;13.35;;;3.20;;
18887;SDS011;9576;47.792;9.628;2023-04-25T04:22:07;5.53;;;2.80;;
18887;SDS011;9576;47.792;9.628;2023-04-25T04:25:10;7.95;;;2.58;;
18887;SDS011;9576;47.792;9.628;2023-04-25T04:28:12;9.23;;;2.95;;
18887;SDS011;9576;47.792;9.628;2023-04-25T04:31:16;11.45;;;3.53;;
18887;SDS011;9576;47.792;9.628;2023-04-25T04:34:19;6.93;;;3.10;;
18887;SDS011;9576;47.792;9.628;2023-04-25T04:37:21;8.27;;;3.53;;
18887;SDS011;9576;47.792;9.628;2023-04-25T04:40:25;8.07;;;3.67;;
18887;SDS011;9576;47.792;9.628;2023-04-25T04:43:27;10.02;;;3.03;;
18887;SDS011;9576;47.792;9.628;2023-04-25T04:46:29;20.40;;;3.72;;
18887;SDS011;9576;47.792;9.628;2023-04-25T04:49:32;12.45;;;3.67;;
18887;SDS011;9576;47.792;9.628;2023-04-25T04:52:34;5.75;;;2.80;;
18887;SDS011;9576;47.792;9.628;2023-04-25T04:55:38;9.18;;;3.33;;
18887;SDS011;9576;47.792;9.628;2023-04-25T04:58:41;12.27;;;3.03;;
18887;SDS011;9576;47.792;9.628;2023-04-25T05:01:44;8.30;;;2.60;;
18887;SDS011;9576;47.792;9.628;2023-04-25T05:04:47;7.38;;;2.58;;
18887;SDS011;9576;47.792;9.628;2023-04-25T05:07:48;11.25;;;3.13;;
18887;SDS011;9576;47.792;9.628;2023-04-25T05:10:52;11.55;;;3.75;;
18887;SDS011;9576;47.792;9.628;2023-04-25T05:13:54;10.60;;;3.40;;
18887;SDS011;9576;47.792;9.628;2023-04-25T05:16:56;11.82;;;4.00;;
18887;SDS011;9576;47.792;9.628;2023-04-25T05:19:58;7.30;;;4.05;;
18887;SDS011;9576;47.792;9.628;2023-04-25T05:23:00;5.82;;;3.55;;
18887;SDS011;9576;47.792;9.628;2023-04-25T05:26:04;7.90;;;3.53;;
18887;SDS011;9576;47.792;9.628;2023-04-25T05:29:06;24.75;;;3.30;;
18887;SDS011;9576;47.792;9.628;2023-04-25T05:32:08;18.20;;;3.67;;
18887;SDS011;9576;47.792;9.628;2023-04-25T05:35:10;11.63;;;3.97;;
18887;SDS011;9576;47.792;9.628;2023-04-25T05:38:11;9.55;;;3.88;;
18887;SDS011;9576;47.792;9.628;2023-04-25T05:41:15;9.27;;;2.92;;
18887;SDS011;9576;47.792;9.628;2023-04-25T05:44:17;9.50;;;3.20;;
18887;SDS011;9576;47.792;9.628;2023-04-25T05:47:19;4.97;;;3.05;;
18887;SDS011;9576;47.792;9.628;2023-04-25T05:50:21;4.75;;;2.75;;
18887;SDS011;9576;47.792;9.628;2023-04-25T05:53:23;6.10;;;2.65;;
18887;SDS011;9576;47.792;9.628;2023-04-25T05:56:26;11.68;;;3.17;;
18887;SDS011;9576;47.792;9.628;2023-04-25T05:59:28;7.50;;;3.22;;
18887;SDS011;9576;47.792;9.628;2023-04-25T06:02:30;13.98;;;2.80;;
18887;SDS011;9576;47.792;9.628;2023-04-25T06:05:32;20.15;;;4.05;;
18887;SDS011;9576;47.792;9.628;2023-04-25T06:08:34;9.45;;;3.53;;
18887;SDS011;9576;47.792;9.628;2023-04-25T06:11:37;9.98;;;3.05;;
18887;SDS011;9576;47.792;9.628;2023-04-25T06:14:39;8.52;;;2.65;;
18887;SDS011;9576;47.792;9.628;2023-04-25T06:17:42;5.43;;;2.97;;
18887;SDS011;9576;47.792;9.628;2023-04-25T06:20:44;13.90;;;3.45;;
18887;SDS011;9576;47.792;9.628;2023-04-25T06:23:45;19.30;;;3.17;;
18887;SDS011;9576;47.792;9.628;2023-04-25T06:26:49;7.68;;;3.42;;
18887;SDS011;9576;47.792;9.628;2023-04-25T06:29:51;11.02;;;3.28;;
18887;SDS011;9576;47.792;9.628;2023-04-25T06:32:52;19.65;;;4.00;;
18887;SDS011;9576;47.792;9.628;2023-04-25T06:35:54;6.78;;;2.78;;
18887;SDS011;9576;47.792;9.628;2023-04-25T06:38:56;9.82;;;2.72;;
18887;SDS011;9576;47.792;9.628;2023-04-25T06:42:00;7.45;;;2.85;;
18887;SDS011;9576;47.792;9.628;2023-04-25T06:45:01;8.40;;;3.80;;
18887;SDS011;9576;47.792;9.628;2023-04-25T06:48:04;13.98;;;3.30;;
18887;SDS011;9576;47.792;9.628;2023-04-25T06:51:06;5.75;;;2.90;;
18887;SDS011;9576;47.792;9.628;2023-04-25T06:54:08;9.10;;;3.05;;
18887;SDS011;9576;47.792;9.628;2023-04-25T06:57:11;8.43;;;2.97;;
18887;SDS011;9576;47.792;9.628;2023-04-25T07:00:13;15.18;;;3.67;;
18887;SDS011;9576;47.792;9.628;2023-04-25T07:03:16;6.88;;;3.20;;
18887;SDS011;9576;47.792;9.628;2023-04-25T07:06:18;9.32;;;3.55;;
18887;SDS011;9576;47.792;9.628;2023-04-25T07:09:19;13.60;;;3.60;;
18887;SDS011;9576;47.792;9.628;2023-04-25T07:12:23;10.13;;;4.07;;
18887;SDS011;9576;47.792;9.628;2023-04-25T07:15:25;6.20;;;2.88;;
18887;SDS011;9576;47.792;9.628;2023-04-25T07:18:26;6.70;;;2.60;;
18887;SDS011;9576;47.792;9.628;2023-04-25T07:21:28;7.20;;;2.55;;
18887;SDS011;9576;47.792;9.628;2023-04-25T07:24:32;11.25;;;3.35;;
18887;SDS011;9576;47.792;9.628;2023-04-25T07:27:35;7.63;;;2.60;;
18887;SDS011;9576;47.792;9.628;2023-04-25T07:30:37;4.50;;;2.67;;
18887;SDS011;9576;47.792;9.628;2023-04-25T07:33:39;6.65;;;2.85;;
18887;SDS011;9576;47.792;9.628;2023-04-25T07:36:41;11.40;;;3.22;;
18887;SDS011;9576;47.792;9.628;2023-04-25T07:39:43;10.75;;;2.97;;
18887;SDS011;9576;47.792;9.628;2023-04-25T07:42:47;8.65;;;2.95;;
18887;SDS011;9576;47.792;9.628;2023-04-25T07:45:49;7.93;;;2.58;;
18887;SDS011;9576;47.792;9.628;2023-04-25T07:48:51;8.70;;;2.55;;
18887;SDS011;9576;47.792;9.628;2023-04-25T07:51:53;20.08;;;2.75;;
18887;SDS011;9576;47.792;9.628;2023-04-25T07:54:56;8.48;;;2.40;;
18887;SDS011;9576;47.792;9.628;2023-04-25T07:58:00;14.63;;;3.10;;
18887;SDS011;9576;47.792;9.628;2023-04-25T08:01:02;5.60;;;2.47;;
18887;SDS011;9576;47.792;9.628;2023-04-25T08:04:04;13.10;;;3.10;;
18887;SDS011;9576;47.792;9.628;2023-04-25T08:07:06;7.72;;;2.53;;
18887;SDS011;9576;47.792;9.628;2023-04-25T08:10:08;9.48;;;2.58;;
18887;SDS011;9576;47.792;9.628;2023-04-25T08:13:11;7.32;;;2.22;;
18887;SDS011;9576;47.792;9.628;2023-04-25T08:16:13;10.00;;;2.58;;
18887;SDS011;9576;47.792;9.628;2023-04-25T08:19:15;3.50;;;2.08;;
18887;SDS011;9576;47.792;9.628;2023-04-25T08:22:17;10.82;;;2.85;;
18887;SDS011;9576;47.792;9.628;2023-04-25T08:25:19;4.82;;;2.10;;
18887;SDS011;9576;47.792;9.628;2023-04-25T08:28:23;8.75;;;3.00;;
18887;SDS011;9576;47.792;9.628;2023-04-25T08:31:25;10.48;;;2.70;;
18887;SDS011;9576;47.792;9.628;2023-04-25T08:34:27;4.53;;;2.47;;
18887;SDS011;9576;47.792;9.628;2023-04-25T08:37:29;5.90;;;2.10;;
18887;SDS011;9576;47.792;9.628;2023-04-25T08:40:31;4.85;;;2.63;;
18887;SDS011;9576;47.792;9.628;2023-04-25T08:43:41;6.22;;;2.22;;
18887;SDS011;9576;47.792;9.628;2023-04-25T08:46:44;10.95;;;2.63;;
18887;SDS011;9576;47.792;9.628;2023-04-25T08:49:49;9.40;;;2.45;;
18887;SDS011;9576;47.792;9.628;2023-04-25T08:52:54;5.30;;;2.47;;
18887;SDS011;9576;47.792;9.628;2023-04-25T08:56:01;8.93;;;2.28;;
18887;SDS011;9576;47.792;9.628;2023-04-25T08:59:05;5.88;;;2.05;;
18887;SDS011;9576;47.792;9.628;2023-04-25T09:02:08;2.90;;;1.73;;
18887;SDS011;9576;47.792;9.628;2023-04-25T09:05:14;4.43;;;1.73;;
18887;SDS011;9576;47.792;9.628;2023-04-25T09:08:16;11.35;;;2.92;;
18887;SDS011;9576;47.792;9.628;2023-04-25T09:11:18;3.15;;;2.03;;
18887;SDS011;9576;47.792;9.628;2023-04-25T09:14:22;3.72;;;1.60;;
18887;SDS011;9576;47.792;9.628;2023-04-25T09:17:25;3.78;;;1.70;;
18887;SDS011;9576;47.792;9.628;2023-04-25T09:20:28;5.50;;;1.98;;
18887;SDS011;9576;47.792;9.628;2023-04-25T09:23:30;1.30;;;1.20;;
18887;SDS011;9576;47.792;9.628;2023-04-25T09:26:40;13.40;;;4.78;;
18887;SDS011;9576;47.792;9.628;2023-04-25T09:29:45;7.40;;;2.85;;
18887;SDS011;9576;47.792;9.628;2023-04-25T09:32:47;4.95;;;2.05;;
18887;SDS011;9576;47.792;9.628;2023-04-25T09:35:49;2.92;;;2.20;;
18887;SDS011;9576;47.792;9.628;2023-04-25T09:38:55;4.93;;;2.30;;
18887;SDS011;9576;47.792;9.628;2023-04-25T09:41:57;3.17;;;1.77;;
18887;SDS011;9576;47.792;9.628;2023-04-25T09:45:01;2.83;;;1.52;;
18887;SDS011;9576;47.792;9.628;2023-04-25T09:48:04;3.30;;;2.03;;
18887;SDS011;9576;47.792;9.628;2023-04-25T09:51:07;2.03;;;1.48;;
18887;SDS011;9576;47.792;9.628;2023-04-25T09:54:09;5.25;;;1.88;;
18887;SDS011;9576;47.792;9.628;2023-04-25T09:57:12;2.92;;;1.88;;
18887;SDS011;9576;47.792;9.628;2023-04-25T10:00:16;2.33;;;1.67;;
18887;SDS011;9576;47.792;9.628;2023-04-25T10:03:21;2.50;;;1.77;;
18887;SDS011;9576;47.792;9.628;2023-04-25T10:06:26;5.20;;;1.40;;
18887;SDS011;9576;47.792;9.628;2023-04-25T10:09:29;2.58;;;2.10;;
18887;SDS011;9576;47.792;9.628;2023-04-25T10:12:33;9.98;;;3.72;;
18887;SDS011;9576;47.792;9.628;2023-04-25T10:15:37;4.78;;;2.33;;
18887;SDS011;9576;47.792;9.628;2023-04-25T10:18:39;2.55;;;1.70;;
18887;SDS011;9576;47.792;9.628;2023-04-25T10:21:44;3.97;;;2.03;;
18887;SDS011;9576;47.792;9.628;2023-04-25T10:24:49;5.18;;;1.58;;
18887;SDS011;9576;47.792;9.628;2023-04-25T10:27:52;2.95;;;1.63;;
18887;SDS011;9576;47.792;9.628;2023-04-25T10:30:59;2.70;;;1.83;;
18887;SDS011;9576;47.792;9.628;2023-04-25T10:34:02;2.28;;;1.50;;
18887;SDS011;9576;47.792;9.628;2023-04-25T10:37:05;1.48;;;1.00;;
18887;SDS011;9576;47.792;9.628;2023-04-25T10:46:41;2.38;;;1.27;;
18887;SDS011;9576;47.792;9.628;2023-04-25T10:49:46;2.15;;;1.40;;
18887;SDS011;9576;47.792;9.628;2023-04-25T10:52:52;2.05;;;1.10;;
18887;SDS011;9576;47.792;9.628;2023-04-25T10:55:55;3.35;;;1.30;;
18887;SDS011;9576;47.792;9.628;2023-04-25T10:59:04;4.57;;;1.13;;
18887;SDS011;9576;47.792;9.628;2023-04-25T11:02:12;1.88;;;1.35;;
18887;SDS011;9576;47.792;9.628;2023-04-25T11:05:21;1.88;;;1.13;;
18887;SDS011;9576;47.792;9.628;2023-04-25T11:08:29;0.73;;;0.73;;
18887;SDS011;9576;47.792;9.628;2023-04-25T11:11:42;1.10;;;0.95;;
18887;SDS011;9576;47.792;9.628;2023-04-25T11:14:58;0.55;;;0.43;;
18887;SDS011;9576;47.792;9.628;2023-04-25T11:18:02;0.60;;;0.60;;
18887;SDS011;9576;47.792;9.628;2023-04-25T11:21:04;1.13;;;0.82;;
18887;SDS011;9576;47.792;9.628;2023-04-25T11:24:07;0.47;;;0.47;;
18887;SDS011;9576;47.792;9.628;2023-04-25T11:27:09;0.60;;;0.60;;
18887;SDS011;9576;47.792;9.628;2023-04-25T11:30:12;0.38;;;0.38;;
18887;SDS011;9576;47.792;9.628;2023-04-25T11:33:16;0.77;;;0.60;;
18887;SDS011;9576;47.792;9.628;2023-04-25T11:36:18;0.52;;;0.40;;
18887;SDS011;9576;47.792;9.628;2023-04-25T11:39:20;3.05;;;0.60;;
18887;SDS011;9576;47.792;9.628;2023-04-25T11:42:22;0.88;;;0.50;;
18887;SDS011;9576;47.792;9.628;2023-04-25T11:45:24;0.38;;;0.32;;
18887;SDS011;9576;47.792;9.628;2023-04-25T11:48:28;0.73;;;0.50;;
18887;SDS011;9576;47.792;9.628;2023-04-25T11:51:38;0.40;;;0.40;;
18887;SDS011;9576;47.792;9.628;2023-04-25T11:54:40;0.50;;;0.50;;
18887;SDS011;9576;47.792;9.628;2023-04-25T11:57:43;0.55;;;0.55;;
18887;SDS011;9576;47.792;9.628;2023-04-25T12:00:48;0.50;;;0.40;;
18887;SDS011;9576;47.792;9.628;2023-04-25T12:03:52;1.88;;;0.50;;
18887;SDS011;9576;47.792;9.628;2023-04-25T12:06:54;0.93;;;0.60;;
18887;SDS011;9576;47.792;9.628;2023-04-25T12:09:56;1.60;;;0.80;;
18887;SDS011;9576;47.792;9.628;2023-04-25T12:12:58;0.70;;;0.70;;
18887;SDS011;9576;47.792;9.628;2023-04-25T12:16:00;1.10;;;0.65;;
18887;SDS011;9576;47.792;9.628;2023-04-25T12:19:03;0.63;;;0.60;;
18887;SDS011;9576;47.792;9.628;2023-04-25T12:22:18;0.40;;;0.40;;
18887;SDS011;9576;47.792;9.628;2023-04-25T12:28:45;0.90;;;0.65;;
18887;SDS011;9576;47.792;9.628;2023-04-25T12:31:48;0.47;;;0.40;;
18887;SDS011;9576;47.792;9.628;2023-04-25T12:34:53;0.52;;;0.43;;
18887;SDS011;9576;47.792;9.628;2023-04-25T12:37:55;4.38;;;0.73;;
18887;SDS011;9576;47.792;9.628;2023-04-25T12:40:57;0.40;;;0.40;;
18887;SDS011;9576;47.792;9.628;2023-04-25T12:43:59;0.63;;;0.43;;
18887;SDS011;9576;47.792;9.628;2023-04-25T12:47:01;0.95;;;0.60;;
18887;SDS011;9576;47.792;9.628;2023-04-25T12:50:05;0.93;;;0.75;;
18887;SDS011;9576;47.792;9.628;2023-04-25T12:53:07;0.47;;;0.47;;
18887;SDS011;9576;47.792;9.628;2023-04-25T12:56:09;0.60;;;0.60;;
18887;SDS011;9576;47.792;9.628;2023-04-25T12:59:11;0.88;;;0.40;;
18887;SDS011;9576;47.792;9.628;2023-04-25T13:02:13;0.65;;;0.40;;
18887;SDS011;9576;47.792;9.628;2023-04-25T13:05:16;0.57;;;0.57;;
18887;SDS011;9576;47.792;9.628;2023-04-25T13:08:18;1.08;;;0.63;;
18887;SDS011;9576;47.792;9.628;2023-04-25T13:11:20;0.47;;;0.47;;
18887;SDS011;9576;47.792;9.628;2023-04-25T13:14:22;0.93;;;0.75;;
18887;SDS011;9576;47.792;9.628;2023-04-25T13:17:24;0.30;;;0.30;;
18887;SDS011;9576;47.792;9.628;2023-04-25T13:20:27;0.38;;;0.30;;
18887;SDS011;9576;47.792;9.628;2023-04-25T13:23:29;0.32;;;0.32;;
18887;SDS011;9576;47.792;9.628;2023-04-25T13:26:31;1.67;;;0.17;;
18887;SDS011;9576;47.792;9.628;2023-04-25T13:29:33;0.15;;;0.15;;
18887;SDS011;9576;47.792;9.628;2023-04-25T13:32:36;3.08;;;0.30;;
18887;SDS011;9576;47.792;9.628;2023-04-25T13:35:39;0.50;;;0.40;;
18887;SDS011;9576;47.792;9.628;2023-04-25T13:38:42;0.13;;;0.13;;
18887;SDS011;9576;47.792;9.628;2023-04-25T13:41:47;0.28;;;0.28;;
18887;SDS011;9576;47.792;9.628;2023-04-25T13:44:49;0.30;;;0.30;;
18887;SDS011;9576;47.792;9.628;2023-04-25T13:47:51;0.30;;;0.30;;
18887;SDS011;9576;47.792;9.628;2023-04-25T13:50:54;0.65;;;0.40;;
18887;SDS011;9576;47.792;9.628;2023-04-25T13:53:56;0.63;;;0.45;;
18887;SDS011;9576;47.792;9.628;2023-04-25T13:56:58;0.30;;;0.30;;
18887;SDS011;9576;47.792;9.628;2023-04-25T14:00:00;0.30;;;0.30;;
18887;SDS011;9576;47.792;9.628;2023-04-25T14:03:07;0.38;;;0.38;;
18887;SDS011;9576;47.792;9.628;2023-04-25T14:06:10;0.40;;;0.40;;
18887;SDS011;9576;47.792;9.628;2023-04-25T14:09:12;0.10;;;0.10;;
18887;SDS011;9576;47.792;9.628;2023-04-25T14:12:15;0.40;;;0.40;;
18887;SDS011;9576;47.792;9.628;2023-04-25T14:15:17;0.32;;;0.32;;
18887;SDS011;9576;47.792;9.628;2023-04-25T14:18:20;0.30;;;0.30;;
18887;SDS011;9576;47.792;9.628;2023-04-25T14:21:23;0.40;;;0.40;;
18887;SDS011;9576;47.792;9.628;2023-04-25T14:24:25;0.90;;;0.65;;
18887;SDS011;9576;47.792;9.628;2023-04-25T14:27:27;0.63;;;0.47;;
18887;SDS011;9576;47.792;9.628;2023-04-25T14:30:29;0.25;;;0.25;;
18887;SDS011;9576;47.792;9.628;2023-04-25T14:33:31;0.38;;;0.38;;
18887;SDS011;9576;47.792;9.628;2023-04-25T14:36:34;0.40;;;0.40;;
18887;SDS011;9576;47.792;9.628;2023-04-25T14:39:37;1.85;;;1.00;;
18887;SDS011;9576;47.792;9.628;2023-04-25T14:42:38;0.45;;;0.45;;
18887;SDS011;9576;47.792;9.628;2023-04-25T14:45:41;0.47;;;0.45;;
18887;SDS011;9576;47.792;9.628;2023-04-25T14:48:43;0.30;;;0.30;;
18887;SDS011;9576;47.792;9.628;2023-04-25T14:51:46;0.40;;;0.40;;
18887;SDS011;9576;47.792;9.628;2023-04-25T14:54:48;0.50;;;0.50;;
18887;SDS011;9576;47.792;9.628;2023-04-25T14:57:50;0.77;;;0.47;;
18887;SDS011;9576;47.792;9.628;2023-04-25T15:00:52;1.17;;;0.45;;
18887;SDS011;9576;47.792;9.628;2023-04-25T15:03:54;2.40;;;0.65;;
18887;SDS011;9576;47.792;9.628;2023-04-25T15:06:58;4.55;;;0.40;;
18887;SDS011;9576;47.792;9.628;2023-04-25T15:10:01;0.47;;;0.45;;
18887;SDS011;9576;47.792;9.628;2023-04-25T15:13:03;0.40;;;0.40;;
18887;SDS011;9576;47.792;9.628;2023-04-25T15:16:05;0.47;;;0.47;;
18887;SDS011;9576;47.792;9.628;2023-04-25T15:19:07;0.85;;;0.70;;
18887;SDS011;9576;47.792;9.628;2023-04-25T15:22:11;0.40;;;0.40;;
18887;SDS011;9576;47.792;9.628;2023-04-25T15:25:13;0.90;;;0.57;;
18887;SDS011;9576;47.792;9.628;2023-04-25T15:28:14;2.60;;;0.60;;
18887;SDS011;9576;47.792;9.628;2023-04-25T15:31:16;5.85;;;0.90;;
18887;SDS011;9576;47.792;9.628;2023-04-25T15:34:18;2.83;;;0.50;;
18887;SDS011;9576;47.792;9.628;2023-04-25T15:37:22;0.57;;;0.57;;
18887;SDS011;9576;47.792;9.628;2023-04-25T15:40:24;0.77;;;0.77;;
18887;SDS011;9576;47.792;9.628;2023-04-25T15:43:26;0.93;;;0.63;;
18887;SDS011;9576;47.792;9.628;2023-04-25T15:46:28;1.52;;;0.80;;
18887;SDS011;9576;47.792;9.628;2023-04-25T15:49:31;7.00;;;4.13;;
18887;SDS011;9576;47.792;9.628;2023-04-25T15:52:35;0.65;;;0.65;;
18887;SDS011;9576;47.792;9.628;2023-04-25T15:58:39;0.57;;;0.57;;
18887;SDS011;9576;47.792;9.628;2023-04-25T16:01:41;4.13;;;2.05;;
18887;SDS011;9576;47.792;9.628;2023-04-25T16:04:44;4.20;;;2.00;;
18887;SDS011;9576;47.792;9.628;2023-04-25T16:07:47;1.05;;;0.70;;
18887;SDS011;9576;47.792;9.628;2023-04-25T16:10:52;9.13;;;1.45;;
18887;SDS011;9576;47.792;9.628;2023-04-25T16:14:02;2.70;;;1.67;;
18887;SDS011;9576;47.792;9.628;2023-04-25T16:17:04;5.13;;;1.73;;
18887;SDS011;9576;47.792;9.628;2023-04-25T16:20:06;6.35;;;1.75;;
18887;SDS011;9576;47.792;9.628;2023-04-25T16:23:11;5.30;;;1.30;;
18887;SDS011;9576;47.792;9.628;2023-04-25T16:26:13;2.20;;;1.42;;
18887;SDS011;9576;47.792;9.628;2023-04-25T16:29:16;1.98;;;1.40;;
18887;SDS011;9576;47.792;9.628;2023-04-25T16:32:18;2.22;;;1.50;;
18887;SDS011;9576;47.792;9.628;2023-04-25T16:35:20;3.33;;;1.55;;
18887;SDS011;9576;47.792;9.628;2023-04-25T16:38:22;6.05;;;1.40;;
18887;SDS011;9576;47.792;9.628;2023-04-25T16:41:24;6.95;;;1.30;;
18887;SDS011;9576;47.792;9.628;2023-04-25T16:44:28;2.72;;;1.38;;
18887;SDS011;9576;47.792;9.628;2023-04-25T16:47:30;1.58;;;1.15;;
18887;SDS011;9576;47.792;9.628;2023-04-25T16:50:31;1.90;;;1.13;;
18887;SDS011;9576;47.792;9.628;2023-04-25T16:53:33;7.22;;;2.20;;
18887;SDS011;9576;47.792;9.628;2023-04-25T16:56:36;3.78;;;1.85;;
18887;SDS011;9576;47.792;9.628;2023-04-25T16:59:39;14.15;;;2.17;;
18887;SDS011;9576;47.792;9.628;2023-04-25T17:02:41;3.60;;;1.88;;
18887;SDS011;9576;47.792;9.628;2023-04-25T17:05:43;10.70;;;3.97;;
18887;SDS011;9576;47.792;9.628;2023-04-25T17:08:45;13.43;;;2.67;;
18887;SDS011;9576;47.792;9.628;2023-04-25T17:11:46;7.15;;;2.38;;
18887;SDS011;9576;47.792;9.628;2023-04-25T17:14:50;2.10;;;1.27;;
18887;SDS011;9576;47.792;9.628;2023-04-25T17:17:52;1.75;;;1.10;;
18887;SDS011;9576;47.792;9.628;2023-04-25T17:20:54;1.20;;;1.00;;
18887;SDS011;9576;47.792;9.628;2023-04-25T17:23:56;2.67;;;1.40;;
18887;SDS011;9576;47.792;9.628;2023-04-25T17:26:58;7.32;;;1.55;;
18887;SDS011;9576;47.792;9.628;2023-04-25T17:30:02;3.50;;;1.35;;
18887;SDS011;9576;47.792;9.628;2023-04-25T17:33:05;2.95;;;1.25;;
18887;SDS011;9576;47.792;9.628;2023-04-25T17:36:07;1.77;;;0.80;;
18887;SDS011;9576;47.792;9.628;2023-04-25T17:39:09;0.65;;;0.65;;
18887;SDS011;9576;47.792;9.628;2023-04-25T17:42:13;0.75;;;0.75;;
18887;SDS011;9576;47.792;9.628;2023-04-25T17:45:17;0.55;;;0.55;;
18887;SDS011;9576;47.792;9.628;2023-04-25T17:48:18;1.45;;;0.38;;
18887;SDS011;9576;47.792;9.628;2023-04-25T17:51:21;0.77;;;0.68;;
18887;SDS011;9576;47.792;9.628;2023-04-25T17:54:23;2.75;;;0.55;;
18887;SDS011;9576;47.792;9.628;2023-04-25T17:57:26;1.25;;;0.88;;
18887;SDS011;9576;47.792;9.628;2023-04-25T18:00:30;7.50;;;0.60;;
18887;SDS011;9576;47.792;9.628;2023-04-25T18:03:32;4.63;;;2.55;;
18887;SDS011;9576;47.792;9.628;2023-04-25T18:06:36;2.90;;;1.55;;
18887;SDS011;9576;47.792;9.628;2023-04-25T18:09:39;3.55;;;1.38;;
18887;SDS011;9576;47.792;9.628;2023-04-25T18:12:40;4.63;;;1.45;;
18887;SDS011;9576;47.792;9.628;2023-04-25T18:15:44;5.13;;;3.40;;
18887;SDS011;9576;47.792;9.628;2023-04-25T18:18:47;4.90;;;1.80;;
18887;SDS011;9576;47.792;9.628;2023-04-25T18:21:52;2.42;;;1.55;;
18887;SDS011;9576;47.792;9.628;2023-04-25T18:24:55;4.90;;;1.83;;
18887;SDS011;9576;47.792;9.628;2023-04-25T18:27:57;3.17;;;1.60;;
18887;SDS011;9576;47.792;9.628;2023-04-25T18:31:00;2.78;;;2.35;;
18887;SDS011;9576;47.792;9.628;2023-04-25T18:34:03;2.38;;;1.92;;
18887;SDS011;9576;47.792;9.628;2023-04-25T18:37:05;2.25;;;1.27;;
18887;SDS011;9576;47.792;9.628;2023-04-25T18:40:07;1.00;;;0.88;;
18887;SDS011;9576;47.792;9.628;2023-04-25T18:43:12;1.00;;;0.90;;
18887;SDS011;9576;47.792;9.628;2023-04-25T18:46:16;2.67;;;1.27;;
18887;SDS011;9576;47.792;9.628;2023-04-25T18:49:21;1.42;;;1.05;;